createdAt,value
2019-03-19T00:02:23.887Z,84.70
2019-03-19T00:04:51.603Z,85.00
2019-03-19T00:07:19.418Z,85.10
2019-03-19T00:09:47.132Z,85.00
2019-03-19T00:12:14.959Z,84.40
2019-03-19T00:14:42.901Z,84.50
2019-03-19T00:17:10.575Z,84.90
2019-03-19T00:19:38.196Z,85.80
2019-03-19T00:22:05.960Z,85.80
2019-03-19T00:24:33.646Z,85.90
2019-03-19T00:27:01.308Z,85.90
2019-03-19T00:29:29.014Z,85.50
2019-03-19T00:31:56.647Z,85.10
2019-03-19T00:34:24.300Z,84.80
2019-03-19T00:36:52.083Z,85.10
2019-03-19T00:39:19.768Z,85.50
2019-03-19T00:41:47.419Z,85.50
2019-03-19T00:44:15.342Z,86.30
2019-03-19T00:46:43.238Z,86.80
2019-03-19T00:49:11.930Z,86.40
2019-03-19T00:51:39.916Z,86.60
2019-03-19T00:54:08.512Z,86.90
2019-03-19T00:56:37.226Z,87.00
2019-03-19T00:59:04.988Z,86.70
2019-03-19T01:01:32.667Z,86.30
2019-03-19T01:04:00.293Z,85.90
2019-03-19T01:06:28.039Z,85.30
2019-03-19T01:08:55.776Z,85.90
2019-03-19T01:11:23.385Z,86.50
2019-03-19T01:13:51.960Z,86.90
2019-03-19T01:16:19.618Z,86.70
2019-03-19T01:18:47.613Z,86.70
2019-03-19T01:21:15.681Z,87.00
2019-03-19T01:23:43.412Z,87.10
2019-03-19T01:26:11.141Z,87.10
2019-03-19T01:28:38.905Z,86.90
2019-03-19T01:31:06.560Z,86.80
2019-03-19T01:33:34.203Z,86.70
2019-03-19T01:36:01.964Z,86.80
2019-03-19T01:38:29.751Z,87.00
2019-03-19T01:40:57.420Z,87.90
2019-03-19T01:43:26.547Z,87.20
2019-03-19T01:45:54.352Z,87.30
2019-03-19T01:48:22.050Z,87.30
2019-03-19T01:50:49.904Z,87.50
2019-03-19T01:53:17.544Z,87.50
2019-03-19T01:55:45.309Z,87.70
2019-03-19T01:58:13.245Z,87.70
2019-03-19T02:00:40.891Z,88.10
2019-03-19T02:03:08.487Z,88.50
2019-03-19T02:05:36.432Z,88.50
2019-03-19T02:08:04.153Z,88.40
2019-03-19T02:10:31.997Z,88.40
2019-03-19T02:12:59.563Z,88.50
2019-03-19T02:15:27.235Z,88.60
2019-03-19T02:17:54.875Z,89.00
2019-03-19T02:20:22.697Z,89.20
2019-03-19T02:22:50.489Z,89.40
2019-03-19T02:25:18.243Z,89.40
2019-03-19T02:27:45.986Z,89.50
2019-03-19T02:30:13.789Z,89.50
2019-03-19T02:32:41.603Z,89.30
2019-03-19T02:35:09.266Z,89.60
2019-03-19T02:37:38.136Z,89.80
2019-03-19T02:40:06.086Z,89.80
2019-03-19T02:42:34.073Z,89.80
2019-03-19T02:45:01.793Z,90.00
2019-03-19T02:47:29.672Z,90.10
2019-03-19T02:49:57.566Z,89.80
2019-03-19T02:52:25.256Z,90.10
2019-03-19T02:54:53.011Z,90.20
2019-03-19T02:57:20.812Z,90.30
2019-03-19T02:59:48.606Z,90.40
2019-03-19T03:02:16.269Z,90.30
2019-03-19T03:04:44.248Z,90.40
2019-03-19T03:07:11.941Z,90.50
2019-03-19T03:09:39.575Z,90.10
2019-03-19T03:12:07.543Z,90.20
2019-03-19T03:14:35.184Z,89.10
2019-03-19T03:17:03.271Z,88.40
2019-03-19T03:19:30.953Z,88.80
2019-03-19T03:21:58.582Z,88.60
2019-03-19T03:24:26.305Z,87.70
2019-03-19T03:26:54.265Z,87.90
2019-03-19T03:29:21.948Z,87.70
2019-03-19T03:31:49.668Z,87.80
2019-03-19T03:34:17.453Z,88.40
2019-03-19T03:36:45.081Z,89.20
2019-03-19T03:39:12.747Z,90.00
2019-03-19T03:41:40.634Z,90.20
2019-03-19T03:44:08.429Z,90.10
2019-03-19T03:46:36.065Z,90.40
2019-03-19T03:49:03.858Z,90.60
2019-03-19T03:51:31.588Z,90.80
2019-03-19T03:53:59.227Z,90.70
2019-03-19T03:56:26.951Z,91.10
2019-03-19T03:59:00.678Z,90.90
2019-03-19T04:01:24.397Z,91.10
2019-03-19T04:03:52.429Z,91.00
2019-03-19T04:06:20.104Z,91.10
2019-03-19T04:08:47.842Z,91.10
2019-03-19T04:11:15.568Z,91.30
2019-03-19T04:13:43.225Z,91.40
2019-03-19T04:16:10.794Z,91.70
2019-03-19T04:18:38.414Z,91.80
2019-03-19T04:21:06.029Z,91.70
2019-03-19T04:23:33.755Z,91.80
2019-03-19T04:26:01.574Z,91.90
2019-03-19T04:28:30.178Z,92.10
2019-03-19T04:30:57.896Z,92.10
2019-03-19T04:33:25.774Z,92.10
2019-03-19T04:35:53.427Z,92.10
2019-03-19T04:38:21.036Z,92.10
2019-03-19T04:40:49.710Z,92.20
2019-03-19T04:43:18.157Z,92.80
2019-03-19T04:45:46.105Z,92.40
2019-03-19T04:48:13.972Z,92.90
2019-03-19T04:50:41.484Z,92.30
2019-03-19T04:53:10.191Z,92.30
2019-03-19T04:55:37.928Z,92.30
2019-03-19T04:58:05.539Z,92.30
2019-03-19T05:00:33.160Z,92.30
2019-03-19T05:03:01.086Z,92.20
2019-03-19T05:05:28.815Z,92.40
2019-03-19T05:07:56.520Z,92.50
2019-03-19T05:10:24.277Z,92.50
2019-03-19T05:12:52.018Z,92.60
2019-03-19T05:15:19.654Z,92.60
2019-03-19T05:17:47.418Z,92.50
2019-03-19T05:20:15.102Z,92.60
2019-03-19T05:22:42.841Z,92.70
2019-03-19T05:25:10.983Z,92.70
2019-03-19T05:27:38.794Z,92.70
2019-03-19T05:30:07.780Z,92.70
2019-03-19T05:32:35.547Z,92.50
2019-03-19T05:35:03.351Z,92.50
2019-03-19T05:37:31.003Z,92.40
2019-03-19T05:39:58.735Z,92.40
2019-03-19T05:42:26.511Z,92.50
2019-03-19T05:44:54.136Z,92.10
2019-03-19T05:47:21.815Z,92.20
2019-03-19T05:49:49.472Z,92.00
2019-03-19T05:52:17.095Z,92.00
2019-03-19T05:54:44.760Z,92.20
2019-03-19T05:57:12.485Z,92.10
2019-03-19T05:59:40.184Z,92.00
2019-03-19T06:02:10.121Z,92.10
2019-03-19T06:04:37.973Z,92.50
2019-03-19T06:07:05.760Z,92.70
2019-03-19T06:09:33.585Z,92.80
2019-03-19T06:12:01.306Z,92.60
2019-03-19T06:14:29.038Z,92.60
2019-03-19T06:16:56.913Z,92.60
2019-03-19T06:19:24.619Z,92.60
2019-03-19T06:21:52.328Z,92.50
2019-03-19T06:24:20.093Z,92.50
2019-03-19T06:26:47.751Z,92.40
2019-03-19T06:29:15.620Z,92.50
2019-03-19T06:31:43.507Z,92.50
2019-03-19T06:34:11.168Z,92.50
2019-03-19T06:36:39.860Z,92.40
2019-03-19T06:39:11.464Z,92.10
2019-03-19T06:41:39.128Z,92.00
2019-03-19T06:44:06.791Z,92.00
2019-03-19T06:46:34.572Z,92.10
2019-03-19T06:49:02.171Z,91.90
2019-03-19T06:51:29.796Z,91.70
2019-03-19T06:53:57.797Z,91.70
2019-03-19T06:56:25.432Z,91.70
2019-03-19T06:58:53.175Z,91.60
2019-03-19T07:01:20.995Z,91.60
2019-03-19T07:03:50.111Z,91.40
2019-03-19T07:06:17.760Z,91.20
2019-03-19T07:08:45.594Z,90.90
2019-03-19T07:11:13.507Z,90.90
2019-03-19T07:13:41.516Z,90.80
2019-03-19T07:16:09.519Z,90.60
2019-03-19T07:18:37.247Z,90.30
2019-03-19T07:21:04.933Z,90.00
2019-03-19T07:23:32.687Z,89.40
2019-03-19T07:26:00.710Z,89.10
2019-03-19T07:28:28.363Z,88.30
2019-03-19T07:30:56.060Z,88.10
2019-03-19T07:33:23.711Z,88.00
2019-03-19T07:35:51.320Z,87.10
2019-03-19T07:38:19.530Z,84.40
2019-03-19T07:40:47.280Z,82.70
2019-03-19T07:43:16.083Z,82.40
2019-03-19T07:45:44.115Z,81.50
2019-03-19T07:48:12.048Z,80.90
2019-03-19T07:50:39.731Z,79.70
2019-03-19T07:53:07.440Z,80.10
2019-03-19T07:55:35.284Z,80.00
2019-03-19T07:58:03.052Z,79.90
2019-03-19T08:00:30.908Z,78.80
2019-03-19T08:02:58.620Z,78.50
2019-03-19T08:05:33.067Z,78.70
2019-03-19T08:07:56.471Z,77.40
2019-03-19T08:10:24.097Z,75.30
2019-03-19T08:12:51.850Z,74.90
2019-03-19T08:15:19.728Z,75.70
2019-03-19T08:17:47.516Z,75.00
2019-03-19T08:20:16.692Z,74.90
2019-03-19T08:22:44.663Z,75.50
2019-03-19T08:25:12.407Z,75.00
2019-03-19T08:27:40.081Z,75.10
2019-03-19T08:30:10.011Z,74.40
2019-03-19T08:32:37.871Z,73.60
2019-03-19T08:35:05.900Z,73.90
2019-03-19T08:37:33.563Z,73.80
2019-03-19T08:40:01.301Z,72.70
2019-03-19T08:42:29.014Z,72.10
2019-03-19T08:45:02.773Z,71.20
2019-03-19T08:47:30.476Z,71.40
2019-03-19T08:49:58.122Z,70.60
2019-03-19T08:52:26.234Z,69.80
2019-03-19T08:54:53.901Z,68.60
2019-03-19T08:57:23.474Z,68.50
2019-03-19T08:59:51.196Z,66.90
2019-03-19T09:02:19.020Z,66.60
2019-03-19T09:04:47.082Z,66.90
2019-03-19T09:07:14.889Z,67.40
2019-03-19T09:09:45.786Z,66.00
2019-03-19T09:12:13.485Z,65.70
2019-03-19T09:14:41.362Z,64.50
2019-03-19T09:17:10.642Z,64.70
2019-03-19T09:19:39.893Z,63.10
2019-03-19T09:22:08.321Z,62.00
2019-03-19T09:24:36.029Z,61.10
2019-03-19T09:27:03.693Z,62.60
2019-03-19T09:29:31.646Z,61.00
2019-03-19T09:31:59.324Z,61.20
2019-03-19T09:34:26.957Z,61.90
2019-03-19T09:36:57.640Z,63.80
2019-03-19T09:39:24.366Z,62.40
2019-03-19T09:41:52.351Z,59.30
2019-03-19T09:44:21.448Z,58.20
2019-03-19T09:46:49.127Z,59.30
2019-03-19T09:49:16.910Z,59.00
2019-03-19T09:51:45.278Z,58.50
2019-03-19T09:54:12.898Z,57.90
2019-03-19T09:56:40.657Z,57.50
2019-03-19T09:59:08.464Z,56.00
2019-03-19T10:01:36.146Z,55.60
2019-03-19T10:04:03.904Z,54.90
2019-03-19T10:06:31.841Z,53.80
2019-03-19T10:09:00.506Z,51.90
2019-03-19T10:11:28.261Z,51.20
2019-03-19T10:13:56.170Z,51.40
2019-03-19T10:16:23.917Z,53.10
2019-03-19T10:18:51.639Z,52.60
2019-03-19T10:21:20.442Z,51.70
2019-03-19T10:23:48.344Z,51.10
2019-03-19T10:26:16.484Z,51.00
2019-03-19T10:28:44.172Z,51.50
2019-03-19T10:31:11.878Z,52.60
2019-03-19T10:33:39.555Z,52.60
2019-03-19T10:36:10.023Z,52.60
2019-03-19T10:38:37.684Z,53.40
2019-03-19T10:41:06.254Z,53.60
2019-03-19T10:43:34.297Z,54.30
2019-03-19T10:46:02.107Z,54.90
2019-03-19T10:48:30.951Z,54.70
2019-03-19T10:50:58.711Z,53.50
2019-03-19T10:53:26.480Z,52.70
2019-03-19T10:55:54.241Z,51.80
2019-03-19T10:58:21.880Z,50.40
2019-03-19T11:00:49.737Z,49.00
2019-03-19T11:03:17.415Z,47.50
2019-03-19T11:05:45.077Z,47.80
2019-03-19T11:08:12.865Z,46.90
2019-03-19T11:10:41.876Z,46.00
2019-03-19T11:13:09.529Z,45.50
2019-03-19T11:15:37.290Z,41.70
2019-03-19T11:18:05.299Z,38.80
2019-03-19T11:20:33.021Z,35.40
2019-03-19T11:23:00.832Z,33.80
2019-03-19T11:25:28.727Z,32.80
2019-03-19T11:27:56.524Z,32.90
2019-03-19T11:30:24.425Z,31.70
2019-03-19T11:32:52.167Z,31.10
2019-03-19T11:35:20.284Z,34.80
2019-03-19T11:37:48.216Z,39.50
2019-03-19T11:40:16.140Z,42.70
2019-03-19T11:42:44.045Z,44.30
2019-03-19T11:45:12.636Z,42.40
2019-03-19T11:47:40.318Z,42.10
2019-03-19T11:50:19.393Z,42.20
2019-03-19T11:52:47.070Z,43.20
2019-03-19T11:55:15.153Z,40.70
2019-03-19T11:57:42.888Z,36.70
2019-03-19T12:00:14.569Z,34.60
2019-03-19T12:02:44.600Z,33.40
2019-03-19T12:05:12.445Z,33.80
2019-03-19T12:07:40.084Z,33.10
2019-03-19T12:10:11.268Z,34.10
2019-03-19T12:12:38.968Z,35.00
2019-03-19T12:15:07.343Z,34.50
2019-03-19T12:17:35.126Z,34.20
2019-03-19T12:20:03.195Z,32.60
2019-03-19T12:22:31.028Z,32.30
2019-03-19T12:24:59.597Z,30.00
2019-03-19T12:27:27.302Z,29.60
2019-03-19T12:29:55.133Z,28.90
2019-03-19T12:32:23.050Z,29.60
2019-03-19T12:34:50.617Z,30.10
2019-03-19T12:37:18.325Z,29.60
2019-03-19T12:39:46.210Z,29.70
2019-03-19T12:42:14.949Z,29.20
2019-03-19T12:44:42.648Z,31.00
2019-03-19T12:47:12.818Z,31.70
2019-03-19T12:49:40.519Z,32.30
2019-03-19T12:52:08.089Z,33.70
2019-03-19T12:54:37.822Z,36.60
2019-03-19T12:57:05.480Z,36.10
2019-03-19T12:59:33.092Z,35.80
2019-03-19T13:02:04.027Z,34.60
2019-03-19T13:04:32.060Z,35.00
2019-03-19T13:07:00.112Z,36.10
2019-03-19T13:09:27.913Z,37.80
2019-03-19T13:11:55.894Z,36.90
2019-03-19T13:14:23.864Z,33.80
2019-03-19T13:16:51.494Z,32.30
2019-03-19T13:19:19.141Z,32.90
2019-03-19T13:21:46.998Z,33.40
2019-03-19T13:24:14.602Z,32.80
2019-03-19T13:26:42.657Z,31.30
2019-03-19T13:29:10.490Z,31.70
2019-03-19T13:31:38.107Z,33.20
2019-03-19T13:34:05.881Z,33.60
2019-03-19T13:36:33.735Z,36.10
2019-03-19T13:39:01.403Z,35.60
2019-03-19T13:41:31.008Z,35.10
2019-03-19T13:43:58.931Z,35.00
2019-03-19T13:46:26.646Z,32.80
2019-03-19T13:48:54.277Z,32.70
2019-03-19T13:51:23.215Z,33.80
2019-03-19T13:53:50.952Z,33.00
2019-03-19T13:56:18.715Z,32.80
2019-03-19T13:58:46.534Z,34.50
2019-03-19T14:01:14.290Z,35.30
2019-03-19T14:03:42.041Z,35.30
2019-03-19T14:06:09.884Z,34.50
2019-03-19T14:08:37.669Z,32.80
2019-03-19T14:11:06.986Z,30.20
2019-03-19T14:13:34.829Z,29.50
2019-03-19T14:16:02.464Z,30.40
2019-03-19T14:18:30.304Z,30.60
2019-03-19T14:20:58.407Z,30.80
2019-03-19T14:23:26.063Z,31.10
2019-03-19T14:25:53.883Z,30.30
2019-03-19T14:28:21.601Z,29.70
2019-03-19T14:30:49.449Z,30.70
2019-03-19T14:33:17.228Z,29.90
2019-03-19T14:35:44.908Z,31.10
2019-03-19T14:38:13.562Z,32.80
2019-03-19T14:40:41.410Z,34.70
2019-03-19T14:43:09.228Z,36.60
2019-03-19T14:45:37.122Z,37.50
2019-03-19T14:48:06.143Z,37.20
2019-03-19T14:50:34.044Z,38.00
2019-03-19T14:53:01.681Z,38.40
2019-03-19T14:55:29.547Z,39.50
2019-03-19T14:57:57.263Z,41.00
2019-03-19T15:00:26.196Z,40.60
2019-03-19T15:02:55.732Z,40.20
2019-03-19T15:05:23.660Z,40.60
2019-03-19T15:07:51.339Z,40.70
2019-03-19T15:10:19.224Z,40.90
2019-03-19T15:12:48.592Z,41.20
2019-03-19T15:15:16.331Z,41.70
2019-03-19T15:17:44.427Z,42.00
2019-03-19T15:20:15.164Z,41.90
2019-03-19T15:22:47.288Z,41.70
2019-03-19T15:25:15.088Z,41.40
2019-03-19T15:27:42.810Z,41.80
2019-03-19T15:30:11.105Z,41.90
2019-03-19T15:32:42.085Z,41.80
2019-03-19T15:35:10.268Z,41.90
2019-03-19T15:37:38.171Z,42.60
2019-03-19T15:40:07.703Z,42.50
2019-03-19T15:42:35.419Z,42.80
2019-03-19T15:45:04.359Z,42.00
2019-03-19T15:47:33.276Z,42.10
2019-03-19T15:50:00.952Z,42.80
2019-03-19T15:52:28.695Z,42.30
2019-03-19T15:54:56.451Z,41.70
2019-03-19T15:57:24.114Z,42.00
2019-03-19T15:59:52.026Z,42.20
2019-03-19T16:02:19.981Z,42.00
2019-03-19T16:04:47.857Z,42.10
2019-03-19T16:07:15.615Z,41.70
2019-03-19T16:09:43.881Z,42.20
2019-03-19T16:12:12.200Z,42.60
2019-03-19T16:14:39.824Z,43.40
2019-03-19T16:17:07.616Z,42.80
2019-03-19T16:19:35.292Z,42.10
2019-03-19T16:22:02.920Z,41.50
2019-03-19T16:24:31.260Z,42.10
2019-03-19T16:26:59.140Z,42.50
2019-03-19T16:29:26.849Z,42.40
2019-03-19T16:31:54.723Z,42.20
2019-03-19T16:34:24.567Z,41.90
2019-03-19T16:36:52.274Z,42.10
2019-03-19T16:39:19.936Z,42.60
2019-03-19T16:41:47.619Z,43.30
2019-03-19T16:44:15.661Z,43.40
2019-03-19T16:46:43.348Z,43.50
2019-03-19T16:49:11.355Z,42.90
2019-03-19T16:51:39.394Z,43.20
2019-03-19T16:54:07.075Z,43.40
2019-03-19T16:56:34.716Z,43.40
2019-03-19T16:59:02.502Z,43.40
2019-03-19T17:01:30.304Z,43.30
2019-03-19T17:03:58.121Z,43.50
2019-03-19T17:06:26.167Z,43.50
2019-03-19T17:08:53.870Z,44.60
2019-03-19T17:11:21.552Z,45.20
2019-03-19T17:13:49.397Z,45.60
2019-03-19T17:16:17.203Z,46.30
2019-03-19T17:18:44.950Z,46.20
2019-03-19T17:21:12.920Z,46.50
2019-03-19T17:23:40.620Z,46.50
2019-03-19T17:26:08.342Z,47.10
2019-03-19T17:28:36.127Z,47.30
2019-03-19T17:31:04.811Z,48.70
2019-03-19T17:33:32.466Z,48.60
2019-03-19T17:36:00.266Z,49.40
2019-03-19T17:38:28.009Z,49.50
2019-03-19T17:40:55.817Z,50.00
2019-03-19T17:43:24.995Z,50.00
2019-03-19T17:45:52.759Z,49.80
2019-03-19T17:48:20.792Z,50.90
2019-03-19T17:50:49.430Z,51.10
2019-03-19T17:53:17.245Z,50.90
2019-03-19T17:55:45.228Z,51.40
2019-03-19T17:58:13.185Z,51.80
2019-03-19T18:00:43.684Z,52.40
2019-03-19T18:03:11.535Z,52.30
2019-03-19T18:05:39.201Z,52.80
2019-03-19T18:08:07.064Z,53.10
2019-03-19T18:10:34.724Z,53.70
2019-03-19T18:13:02.588Z,52.90
2019-03-19T18:15:30.300Z,52.60
2019-03-19T18:17:58.059Z,53.50
2019-03-19T18:20:26.249Z,54.00
2019-03-19T18:22:54.085Z,54.30
2019-03-19T18:25:21.975Z,54.60
2019-03-19T18:27:49.934Z,54.50
2019-03-19T18:30:17.721Z,54.70
2019-03-19T18:32:47.475Z,54.80
2019-03-19T18:35:15.185Z,54.70
2019-03-19T18:37:43.926Z,54.90
2019-03-19T18:40:11.891Z,54.90
2019-03-19T18:42:39.576Z,54.80
2019-03-19T18:45:08.426Z,55.40
2019-03-19T18:47:36.130Z,55.60
2019-03-19T18:50:05.194Z,56.20
2019-03-19T18:52:33.210Z,56.30
2019-03-19T18:55:00.880Z,56.50
2019-03-19T18:57:28.768Z,56.80
2019-03-19T18:59:56.537Z,57.40
2019-03-19T19:02:24.346Z,57.00
2019-03-19T19:04:52.040Z,57.40
2019-03-19T19:07:22.935Z,57.80
2019-03-19T19:09:51.472Z,58.00
2019-03-19T19:12:19.473Z,58.40
2019-03-19T19:14:47.410Z,58.80
2019-03-19T19:17:15.082Z,58.40
2019-03-19T19:19:42.824Z,58.80
2019-03-19T19:22:10.514Z,58.70
2019-03-19T19:24:38.426Z,58.40
2019-03-19T19:27:06.068Z,58.40
2019-03-19T19:29:34.007Z,58.10
2019-03-19T19:32:01.971Z,58.00
2019-03-19T19:34:30.672Z,58.10
2019-03-19T19:36:58.474Z,58.00
2019-03-19T19:39:26.600Z,58.40
2019-03-19T19:41:54.364Z,58.80
2019-03-19T19:44:22.245Z,58.90
2019-03-19T19:46:50.000Z,58.90
2019-03-19T19:49:17.770Z,59.00
2019-03-19T19:51:45.579Z,58.90
2019-03-19T19:54:13.461Z,59.10
2019-03-19T19:56:41.233Z,59.00
2019-03-19T19:59:08.998Z,59.30
2019-03-19T20:01:37.035Z,59.30
2019-03-19T20:04:04.685Z,60.10
2019-03-19T20:06:32.416Z,59.90
2019-03-19T20:09:00.260Z,59.70
2019-03-19T20:11:28.151Z,59.90
2019-03-19T20:13:55.915Z,60.20
2019-03-19T20:16:23.690Z,60.50
2019-03-19T20:18:51.394Z,60.30
2019-03-19T20:21:19.189Z,60.20
2019-03-19T20:23:47.248Z,61.00
2019-03-19T20:26:14.937Z,61.30
2019-03-19T20:28:44.033Z,60.80
2019-03-19T20:31:13.147Z,60.10
2019-03-19T20:33:43.402Z,59.90
2019-03-19T20:36:11.389Z,59.60
2019-03-19T20:38:39.172Z,59.90
2019-03-19T20:41:07.002Z,59.80
2019-03-19T20:43:35.539Z,60.40
2019-03-19T20:46:03.796Z,60.30
2019-03-19T20:48:31.631Z,60.60
2019-03-19T20:50:59.500Z,60.60
2019-03-19T20:53:27.580Z,60.30
2019-03-19T20:55:55.864Z,60.90
2019-03-19T20:58:23.659Z,61.20
2019-03-19T21:00:51.354Z,60.90
2019-03-19T21:03:19.006Z,61.00
2019-03-19T21:05:47.272Z,60.80
2019-03-19T21:08:15.260Z,62.10
2019-03-19T21:10:42.909Z,61.60
2019-03-19T21:13:10.630Z,62.10
2019-03-19T21:15:38.464Z,62.20
2019-03-19T21:18:07.628Z,62.00
2019-03-19T21:20:36.575Z,61.90
2019-03-19T21:23:04.525Z,61.60
2019-03-19T21:25:32.584Z,61.40
2019-03-19T21:28:00.462Z,60.70
2019-03-19T21:30:28.151Z,60.80
2019-03-19T21:32:56.184Z,60.90
2019-03-19T21:35:24.079Z,61.20
2019-03-19T21:37:52.246Z,64.00
2019-03-19T21:40:20.026Z,66.10
2019-03-19T21:42:49.693Z,67.90
2019-03-19T21:45:20.039Z,68.90
2019-03-19T21:47:48.050Z,69.50
2019-03-19T21:50:15.877Z,70.70
2019-03-19T21:52:43.675Z,70.40
2019-03-19T21:55:14.027Z,71.10
2019-03-19T21:57:41.422Z,71.70
2019-03-19T22:00:11.776Z,71.90
2019-03-19T22:02:39.644Z,72.00
2019-03-19T22:05:07.787Z,72.20
2019-03-19T22:07:35.585Z,72.60
2019-03-19T22:10:04.447Z,72.90
2019-03-19T22:12:32.597Z,73.40
2019-03-19T22:15:00.398Z,73.20
2019-03-19T22:17:28.192Z,73.50
2019-03-19T22:19:56.037Z,73.70
2019-03-19T22:22:23.869Z,74.00
2019-03-19T22:24:51.510Z,74.10
2019-03-19T22:27:19.212Z,74.20
2019-03-19T22:29:47.262Z,74.80
2019-03-19T22:32:14.984Z,74.90
2019-03-19T22:34:42.651Z,75.40
2019-03-19T22:37:10.348Z,75.80
2019-03-19T22:39:38.040Z,76.00
2019-03-19T22:42:05.855Z,76.20
2019-03-19T22:44:33.668Z,76.20
2019-03-19T22:47:01.503Z,76.50
2019-03-19T22:49:29.301Z,76.30
2019-03-19T22:51:57.076Z,76.40
2019-03-19T22:54:24.782Z,76.30
2019-03-19T22:56:52.455Z,76.80
2019-03-19T22:59:20.456Z,76.60
2019-03-19T23:01:48.187Z,76.50
2019-03-19T23:04:26.751Z,76.80
2019-03-19T23:06:45.637Z,77.30
2019-03-19T23:09:13.293Z,76.80
2019-03-19T23:11:41.002Z,76.70
2019-03-19T23:14:08.863Z,76.60
2019-03-19T23:16:36.624Z,76.80
2019-03-19T23:19:04.498Z,77.30
2019-03-19T23:21:33.208Z,76.40
2019-03-19T23:24:00.967Z,75.90
2019-03-19T23:26:28.633Z,76.50
2019-03-19T23:28:56.323Z,77.00
2019-03-19T23:31:25.147Z,76.80
2019-03-19T23:33:53.948Z,76.80
2019-03-19T23:36:21.546Z,76.20
2019-03-19T23:38:49.160Z,76.30
2019-03-19T23:41:16.826Z,76.00
2019-03-19T23:43:44.839Z,76.10
2019-03-19T23:46:12.724Z,75.70
2019-03-19T23:48:40.443Z,75.30
2019-03-19T23:51:08.507Z,75.00
2019-03-19T23:53:36.162Z,75.60
2019-03-19T23:56:03.944Z,75.50
2019-03-19T23:58:31.669Z,75.00
